Latest Weather Observations for Tatura

IDV60801

Issued at 10:02 pm EDT Saturday 6 February 2016 (issued every 30 minutes, with the page automatically refreshed every 10 minutes)

About weather observations | Map of weather stations | Latest weather observations for VIC | Other Formats
Station Details ID: 081049 Name: TATURA INST SUSTAINABLE AG Lat: -36.44 Lon: 145.27 Height: 114.0 m
Data from the previous 72 hours. | See also: Recent months at Tatura
Date/Time
EDT
Temp
°C
App
Temp
°C
Dew
Point
Rel
Hum
%
Delta-T
°C
Wind Press
QNH
hPa
Press
MSL
hPa
Rain
since 9 am
mm
Dir
 
Spd
km/h
Gust
km/h
Spd
kts
Gust
kts
06/10:00pm 19.7 20.8 13.6 68 3.5 CALM 0 0 0 0 - - 0.0
06/09:30pm 21.1 22.1 13.3 61 4.5 CALM 0 6 0 3 - - 0.0
06/09:00pm 22.2 22.1 13.3 57 5.1 NNW 6 7 3 4 - - 0.0
06/08:30pm 24.8 24.8 13.7 50 6.5 SW 6 7 3 4 - - 0.0
06/08:00pm 28.2 27.4 11.7 36 9.6 WSW 7 9 4 5 - - 0.0
06/07:30pm 29.1 28.5 11.6 33 10.2 SSW 6 11 3 6 - - 0.0
06/07:00pm 28.9 28.1 11.0 33 10.3 S 6 15 3 8 - - 0.0
06/06:30pm 29.3 27.7 11.4 33 10.4 SW 11 17 6 9 - - 0.0
06/06:00pm 29.3 28.4 11.4 33 10.4 SW 7 17 4 9 - - 0.0
06/05:30pm 29.3 27.4 11.8 34 10.2 SSE 13 20 7 11 - - 0.0
06/05:00pm 29.2 28.0 11.7 34 10.2 ESE 9 17 5 9 - - 0.0
06/04:30pm 29.2 29.8 13.0 37 9.6 SW 2 9 1 5 - - 0.0
06/04:00pm 29.0 28.7 13.2 37 9.4 W 7 15 4 8 - - 0.0
06/03:30pm 28.1 26.4 12.4 37 9.2 S 13 19 7 10 - - 0.0
06/03:00pm 28.3 27.7 11.8 36 9.6 SE 6 11 3 6 - - 0.0
06/02:30pm 28.0 26.4 11.5 35 9.5 NNE 11 17 6 9 - - 0.0
06/02:00pm 27.2 26.5 12.0 38 8.8 SSE 7 15 4 8 - - 0.0
06/01:30pm 26.9 25.4 11.8 39 8.7 NE 11 19 6 10 - - 0.0
06/01:00pm 26.5 25.6 13.6 45 7.6 ENE 11 17 6 9 - - 0.0
06/12:30pm 25.5 25.2 13.4 47 7.1 N 7 15 4 8 - - 0.0
06/12:00pm 25.7 24.4 12.5 44 7.7 ENE 11 17 6 9 - - 0.0
06/11:30am 24.6 23.6 12.2 46 7.1 NNE 9 17 5 9 - - 0.0
06/11:00am 24.4 22.5 11.7 45 7.2 NE 13 20 7 11 - - 0.0
06/10:30am 23.3 22.0 12.6 51 6.1 NNE 11 19 6 10 - - 0.0
06/10:00am 22.6 20.5 12.5 53 5.8 NNE 15 19 8 10 - - 0.0
06/09:30am 21.7 19.6 12.3 55 5.3 N 15 22 8 12 - - 0.0
06/09:00am 20.7 19.5 12.9 61 4.5 NE 11 15 6 8 - - 0.0
06/08:30am 20.0 20.3 12.3 61 4.3 ENE 2 6 1 3 - - 0.0
06/08:00am 19.1 20.0 12.8 67 3.6 CALM 0 0 0 0 - - 0.0
06/07:30am 16.0 15.2 12.9 82 1.7 SSE 9 11 5 6 - - 0.0
06/07:00am 14.4 15.1 12.3 87 1.1 CALM 0 0 0 0 - - 0.0
06/06:30am 14.9 15.7 12.4 85 1.4 CALM 0 0 0 0 - - 0.0
06/06:00am 16.8 16.1 12.1 74 2.6 NE 7 9 4 5 - - 0.0
06/05:30am 17.3 16.3 12.2 72 2.8 NNE 9 11 5 6 - - 0.0
06/05:00am 17.7 16.3 12.2 70 3.1 NNE 11 13 6 7 - - 0.0
06/04:30am 18.3 16.8 11.8 66 3.6 NNE 11 17 6 9 - - 0.0
06/04:00am 18.5 17.2 11.3 63 3.9 NNE 9 11 5 6 - - 0.0
06/03:30am 19.1 17.5 11.4 61 4.2 NNE 11 17 6 9 - - 0.0
06/03:00am 18.0 16.9 11.8 67 3.4 NNE 9 11 5 6 - - 0.0
06/02:30am 17.8 16.5 12.5 71 3.0 NE 11 13 6 7 - - 0.0
06/02:00am 18.3 17.5 13.0 71 3.0 NE 9 15 5 8 - - 0.0
06/01:30am 18.7 17.9 12.9 69 3.3 S 9 11 5 6 - - 0.0
06/01:00am 17.8 17.3 12.7 72 2.9 S 7 9 4 5 - - 0.0
06/12:30am 19.9 18.9 12.4 62 4.2 S 9 11 5 6 - - 0.0
06/12:00am 21.4 20.0 12.3 56 5.2 S 11 15 6 8 - - 0.0
 
Date/Time
EDT
Temp
°C
App
Temp
°C
Dew
Point
Rel
Hum
%
Delta-T
°C
Wind Press
QNH
hPa
Press
MSL
hPa
Rain
since 9 am
mm
Dir
 
Spd
km/h
Gust
km/h
Spd
kts
Gust
kts
05/11:30pm 22.1 20.2 11.8 52 5.8 S 13 15 7 8 - - 0.0
05/11:00pm 21.3 20.6 11.3 53 5.6 SSW 6 13 3 7 - - 0.0
05/10:30pm 19.8 19.9 12.6 63 4.1 NNE 4 17 2 9 - - 0.0
05/10:00pm 19.7 20.5 12.5 63 4.1 CALM 0 0 0 0 - - 0.0
05/09:30pm 20.5 21.1 12.0 58 4.8 CALM 0 0 0 0 - - 0.0
05/09:00pm 22.0 22.7 12.3 54 5.5 CALM 0 0 0 0 - - 0.0
05/08:30pm 25.3 25.5 10.7 40 8.2 CALM 0 0 0 0 - - 0.0
05/08:00pm 28.8 29.1 10.9 33 10.3 CALM 0 0 0 0 - - 0.0
05/07:30pm 29.6 29.1 9.2 28 11.4 WSW 2 9 1 5 - - 0.0
05/07:00pm 29.3 28.7 8.9 28 11.3 W 2 7 1 4 - - 0.0
05/06:30pm 29.8 28.6 10.4 30 11.1 WSW 7 13 4 7 - - 0.0
05/06:00pm 29.1 27.4 9.8 30 10.9 SSE 9 15 5 8 - - 0.0
05/05:30pm 29.4 27.9 9.0 28 11.4 W 7 13 4 7 - - 0.0
05/05:00pm 29.2 27.5 11.3 33 10.3 SSW 11 17 6 9 - - 0.0
05/04:30pm 28.4 26.5 9.2 30 10.7 SE 9 17 5 9 - - 0.0
05/04:00pm 28.5 26.1 8.7 29 10.9 SE 11 19 6 10 - - 0.0
05/03:30pm 28.0 25.9 9.8 32 10.2 SE 11 20 6 11 - - 0.0
05/03:00pm 27.5 26.2 9.8 33 9.9 WSW 7 15 4 8 - - 0.0
05/02:30pm 26.9 25.2 9.7 34 9.6 SSE 9 17 5 9 - - 0.0
05/02:00pm 26.1 25.1 11.1 39 8.5 S 7 22 4 12 - - 0.0
05/01:30pm 26.4 24.9 10.5 37 8.9 SSW 9 19 5 10 - - 0.0
05/01:00pm 25.6 24.0 10.2 38 8.6 E 9 17 5 9 - - 0.0
05/12:30pm 25.0 23.2 9.3 37 8.6 S 9 15 5 8 - - 0.0
05/12:00pm 24.6 23.2 10.8 42 7.7 SSE 9 17 5 9 - - 0.0
05/11:30am 23.7 22.3 9.7 41 7.7 NE 7 13 4 7 - - 0.0
05/11:00am 22.9 22.3 10.3 45 6.9 ESE 4 15 2 8 - - 0.0
05/10:30am 22.4 21.6 11.2 49 6.3 E 6 13 3 7 - - 0.0
05/10:00am 21.4 21.1 12.8 58 4.9 SSE 6 13 3 7 - - 0.0
05/09:30am 20.5 19.5 12.2 59 4.7 SE 9 13 5 7 - - 0.0
05/09:00am 18.9 17.2 12.4 66 3.6 SSE 13 17 7 9 - - 0.0
05/08:30am 17.7 15.9 13.2 75 2.5 SSE 15 19 8 10 - - 0.0
05/08:00am 16.3 15.2 13.0 81 1.8 S 11 17 6 9 - - 0.0
05/07:30am 14.8 14.0 13.0 89 1.0 S 9 11 5 6 - - 0.0
05/07:00am 13.7 12.3 12.3 91 0.8 S 11 13 6 7 - - 0.0
05/06:30am 13.8 12.8 12.2 90 0.9 S 9 11 5 6 - - 0.0
05/06:00am 14.3 13.3 12.3 88 1.1 S 9 15 5 8 - - 0.0
05/05:30am 14.6 12.9 12.6 88 1.1 S 13 17 7 9 - - 0.0
05/05:00am 14.8 13.2 12.7 87 1.2 S 13 17 7 9 - - 0.0
05/04:30am 15.1 13.5 12.8 86 1.3 S 13 17 7 9 - - 0.0
05/04:00am 15.3 13.8 13.0 86 1.3 S 13 17 7 9 - - 0.0
05/03:30am 15.5 14.0 13.0 85 1.4 S 13 19 7 10 - - 0.0
05/03:00am 15.7 13.8 13.0 84 1.5 S 15 20 8 11 - - 0.0
05/02:30am 15.8 14.2 12.9 83 1.6 S 13 17 7 9 - - 0.0
05/02:00am 16.2 14.6 12.9 81 1.8 S 13 20 7 11 - - 0.0
05/01:30am 16.5 14.2 13.0 80 2.0 S 17 24 9 13 - - 0.0
05/01:00am 16.8 14.9 12.9 78 2.2 S 15 22 8 12 - - 0.0
05/12:30am 17.2 14.3 12.9 76 2.4 S 20 28 11 15 - - 0.0
05/12:00am 17.4 14.7 12.9 75 2.5 S 19 28 10 15 - - 0.0
 
Date/Time
EDT
Temp
°C
App
Temp
°C
Dew
Point
Rel
Hum
%
Delta-T
°C
Wind Press
QNH
hPa
Press
MSL
hPa
Rain
since 9 am
mm
Dir
 
Spd
km/h
Gust
km/h
Spd
kts
Gust
kts
04/11:30pm 17.6 14.3 12.7 73 2.7 S 22 32 12 17 - - 0.0
04/11:00pm 18.0 14.7 12.9 72 2.9 S 22 32 12 17 - - 0.0
04/10:30pm 18.4 15.1 12.8 70 3.2 S 22 32 12 17 - - 0.0
04/10:00pm 19.1 15.9 13.1 68 3.4 S 22 28 12 15 - - 0.0
04/09:30pm 20.0 16.4 13.0 64 4.0 S 24 37 13 20 - - 0.0
04/09:00pm 21.0 17.4 12.9 60 4.6 S 24 37 13 20 - - 0.0
04/08:30pm 21.9 18.3 13.0 57 5.1 S 24 37 13 20 - - 0.0
04/08:00pm 22.9 18.7 13.4 55 5.5 S 28 43 15 23 - - 0.0
04/07:30pm 23.8 19.6 13.4 52 6.1 S 28 50 15 27 - - 0.0
04/07:25pm 23.8 18.7 13.1 51 6.2 S 32 50 17 27 - - 0.0
04/07:00pm 24.4 19.0 12.7 48 6.8 S 33 44 18 24 - - 0.0
04/06:30pm 25.5 21.3 13.4 47 7.1 S 28 43 15 23 - - 0.0
04/06:00pm 25.6 20.5 13.1 46 7.3 S 32 46 17 25 - - 0.0
04/05:30pm 25.9 21.2 13.1 45 7.5 S 30 43 16 23 - - 0.0
04/05:00pm 26.5 21.9 12.2 41 8.3 S 28 41 15 22 - - 0.0
04/04:30pm 26.3 22.3 14.1 47 7.3 S 28 39 15 21 - - 0.0
04/04:00pm 26.8 23.3 13.5 44 7.9 S 24 35 13 19 - - 0.0
04/03:30pm 26.2 22.4 13.7 46 7.4 S 26 37 14 20 - - 0.0
04/03:00pm 26.0 22.2 13.5 46 7.4 S 26 39 14 21 - - 0.0
04/02:30pm 25.9 22.0 13.4 46 7.4 S 26 35 14 19 - - 0.0
04/02:00pm 25.8 22.0 13.6 47 7.2 S 26 39 14 21 - - 0.0
04/01:30pm 25.3 21.3 12.9 46 7.2 S 26 35 14 19 - - 0.0
04/01:00pm 24.6 21.0 12.9 48 6.8 S 24 33 13 18 - - 0.0
04/12:30pm 23.7 20.7 12.7 50 6.3 S 20 32 11 17 - - 0.0
04/12:00pm 23.3 19.2 11.4 47 6.7 S 24 35 13 19 - - 0.0
04/11:30am 23.0 19.7 11.7 49 6.4 S 20 32 11 17 - - 0.0
04/11:00am 22.0 18.6 11.4 51 5.9 S 20 28 11 15 - - 0.0
04/10:30am 20.7 16.9 11.1 54 5.3 S 22 32 12 17 - - 0.0
04/10:00am 20.1 16.8 11.6 58 4.7 SSE 20 32 11 17 - - 0.0
04/09:30am 18.7 15.0 10.3 58 4.5 SSE 20 32 11 17 - - 0.0
04/09:00am 17.9 13.9 10.3 61 4.1 SSE 22 33 12 18 - - 0.2
04/08:30am 16.9 12.5 10.3 65 3.5 SSE 24 32 13 17 - - 0.2
04/08:00am 16.1 12.5 10.4 69 3.0 SSE 20 30 11 16 - - 0.2
04/07:30am 15.1 12.0 10.3 73 2.5 SSE 17 24 9 13 - - 0.2
04/07:00am 14.3 11.5 9.9 75 2.3 S 15 24 8 13 - - 0.2
04/06:30am 14.2 11.0 9.8 75 2.3 S 17 26 9 14 - - 0.2
04/06:00am 14.2 10.5 9.6 74 2.4 S 19 28 10 15 - - 0.2
04/05:30am 14.2 9.9 9.4 73 2.5 SSE 22 35 12 19 - - 0.2
04/05:00am 14.2 10.3 9.4 73 2.5 S 20 32 11 17 - - 0.2
04/04:30am 14.1 10.7 9.3 73 2.5 S 17 28 9 15 - - 0.2
04/04:00am 14.2 12.8 9.0 71 2.7 E 6 11 3 6 - - 0.2
04/03:30am 14.4 10.6 9.2 71 2.7 S 19 26 10 14 - - 0.2
04/03:00am 14.7 12.4 8.9 68 3.0 S 11 24 6 13 - - 0.2
04/02:30am 14.9 10.8 8.8 67 3.1 SSE 20 32 11 17 - - 0.2
04/02:00am 15.1 11.3 9.0 67 3.1 SSE 19 33 10 18 - - 0.2
04/01:30am 15.2 11.2 8.9 66 3.2 SSE 20 32 11 17 - - 0.2
04/01:00am 15.4 11.0 9.1 66 3.2 S 22 35 12 19 - - 0.2
04/12:30am 15.4 11.4 9.1 66 3.2 S 20 35 11 19 - - 0.2
04/12:00am 15.7 10.9 8.9 64 3.5 S 24 39 13 21 - - 0.2
 
Date/Time
EDT
Temp
°C
App
Temp
°C
Dew
Point
Rel
Hum
%
Delta-T
°C
Wind Press
QNH
hPa
Press
MSL
hPa
Rain
since 9 am
mm
Dir
 
Spd
km/h
Gust
km/h
Spd
kts
Gust
kts
03/11:30pm 16.0 10.9 9.2 64 3.5 S 26 39 14 21 - - 0.2
03/11:00pm 16.4 11.0 9.6 64 3.6 S 28 41 15 22 - - 0.2
03/10:30pm 16.8 12.3 10.0 64 3.6 S 24 35 13 19 - - 0.2

Other Formats:

Comma delimited format used in spreadsheet applications
http://www.bom.gov.au/fwo/IDV60801/IDV60801.95836.axf

JavaScript Object Notation format (JSON) in row-major order
http://www.bom.gov.au/fwo/IDV60801/IDV60801.95836.json